Time;durP1;ratioP1;P1;durP2;ratioP2;P2;SDS_P1;SDS_P2;PMS_P1;PMS_P2;Temp;Humidity;BMP_temperature;BMP_pressure;BME280_temperature;BME280_humidity;BME280_pressure;Samples;Min_cycle;Max_cycle;Signal;HPM_P1;HPM_P2
2021/06/01 00:02:53;;;;;;;31.80;15.77;;;;;;;4.59;68.44;99245.41;2168727;81;21129;-79
2021/06/01 00:08:57;;;;;;;25.93;14.97;;;;;;;4.49;68.67;99240.67;2136471;81;21092;-80
2021/06/01 00:11:58;;;;;;;26.53;15.00;;;;;;;4.45;68.59;99237.08;2163324;81;21084;-79
2021/06/01 00:14:59;;;;;;;28.37;15.07;;;;;;;4.39;68.64;99235.52;2186411;80;21132;-80
2021/06/01 00:18:00;;;;;;;32.67;14.70;;;;;;;4.36;68.87;99235.80;2211490;80;21033;-80
2021/06/01 00:21:01;;;;;;;28.73;15.47;;;;;;;4.28;68.63;99238.03;2164445;81;21041;-79
2021/06/01 00:24:02;;;;;;;34.77;15.97;;;;;;;4.22;68.59;99242.05;2179289;81;21086;-80
2021/06/01 00:27:02;;;;;;;34.07;16.70;;;;;;;4.17;68.62;99236.69;2165351;81;21024;-80
2021/06/01 00:30:04;;;;;;;30.23;15.13;;;;;;;4.09;68.82;99243.22;2190642;80;21400;-80
2021/06/01 00:33:05;;;;;;;32.77;16.10;;;;;;;4.10;68.97;99244.58;2218150;80;21020;-80
2021/06/01 00:36:06;;;;;;;29.90;15.27;;;;;;;4.07;68.97;99240.57;2163295;81;21000;-80
2021/06/01 00:39:07;;;;;;;29.97;16.30;;;;;;;4.07;68.87;99243.16;2183412;82;21440;-80
2021/06/01 00:42:08;;;;;;;28.27;15.20;;;;;;;4.03;68.96;99243.84;2163763;81;21100;-79
2021/06/01 00:45:09;;;;;;;30.97;14.17;;;;;;;3.97;68.79;99242.69;2157966;81;21040;-79
2021/06/01 00:48:10;;;;;;;26.30;15.23;;;;;;;3.91;68.77;99245.88;2188672;80;21027;-80
2021/06/01 00:51:11;;;;;;;26.80;14.30;;;;;;;3.94;69.57;99245.13;2222084;80;21037;-78
2021/06/01 00:54:12;;;;;;;27.80;13.50;;;;;;;3.90;69.09;99244.11;2183203;82;21509;-79
2021/06/01 00:57:13;;;;;;;43.53;15.57;;;;;;;3.88;69.31;99240.98;2150494;81;21026;-80
2021/06/01 01:03:32;;;;;;;24.63;14.53;;;;;;;3.77;69.30;99240.52;2135927;81;21121;-80
2021/06/01 01:06:37;;;;;;;29.43;15.17;;;;;;;3.72;69.52;99246.77;2170944;81;21150;-80
2021/06/01 01:09:36;;;;;;;32.77;15.20;;;;;;;3.68;69.32;99248.73;2158674;81;21096;-83
2021/06/01 01:12:37;;;;;;;69.90;17.23;;;;;;;3.67;69.46;99246.08;2188671;80;20980;-80
2021/06/01 01:15:38;;;;;;;29.17;15.60;;;;;;;3.64;69.56;99245.53;2194582;80;21064;-82
2021/06/01 01:18:39;;;;;;;22.37;14.53;;;;;;;3.61;69.49;99245.80;2178450;81;21023;-81
2021/06/01 01:21:40;;;;;;;34.40;15.40;;;;;;;3.60;69.39;99244.91;2158319;81;21036;-79
2021/06/01 01:24:41;;;;;;;27.40;15.00;;;;;;;3.57;69.43;99242.60;2188326;80;21461;-81
2021/06/01 01:27:42;;;;;;;34.13;14.57;;;;;;;3.54;69.42;99247.63;2189960;80;21025;-80
2021/06/01 01:30:43;;;;;;;68.23;17.93;;;;;;;3.49;69.29;99241.84;2207127;80;20993;-80
2021/06/01 01:33:44;;;;;;;29.93;15.47;;;;;;;3.42;69.48;99239.77;2170769;81;21060;-80
2021/06/01 01:36:45;;;;;;;28.40;14.83;;;;;;;3.37;69.37;99235.20;2174285;81;21020;-81
2021/06/01 01:39:49;;;;;;;26.73;14.47;;;;;;;3.32;69.56;99240.16;2185690;80;21022;-82
2021/06/01 01:42:50;;;;;;;41.07;16.17;;;;;;;3.28;69.68;99242.52;2221831;80;21020;-80
2021/06/01 01:46:00;;;;;;;34.17;14.33;;;;;;;3.27;69.74;99244.63;2171712;81;21508;-80
2021/06/01 01:49:01;;;;;;;32.20;15.60;;;;;;;3.25;69.88;99241.97;2167189;81;21085;-80
2021/06/01 01:51:59;;;;;;;26.30;14.77;;;;;;;3.24;69.62;99239.32;2189178;81;21468;-79
2021/06/01 01:55:00;;;;;;;35.83;16.20;;;;;;;3.25;69.61;99235.92;2196063;80;21440;-79
2021/06/01 01:58:01;;;;;;;68.30;17.43;;;;;;;3.29;69.63;99233.97;2183870;82;21004;-80
2021/06/01 02:01:02;;;;;;;33.03;16.17;;;;;;;3.23;69.72;99233.68;2179908;81;21024;-81
2021/06/01 02:04:03;;;;;;;31.87;15.07;;;;;;;3.19;69.76;99230.08;2188561;80;21081;-81
2021/06/01 02:07:04;;;;;;;28.07;13.97;;;;;;;3.14;69.52;99232.44;2202602;80;21452;-81
2021/06/01 02:10:06;;;;;;;100.83;19.53;;;;;;;3.06;69.44;99226.03;2164464;81;21454;-79
2021/06/01 02:13:08;;;;;;;69.97;17.17;;;;;;;2.98;69.83;99222.62;2155911;81;21126;-80
2021/06/01 02:16:11;;;;;;;28.17;14.43;;;;;;;2.98;69.90;99228.66;2138114;81;21461;-80
2021/06/01 02:19:12;;;;;;;45.50;14.97;;;;;;;3.00;69.92;99232.19;2163114;81;21019;-79
2021/06/01 02:22:21;;;;;;;28.27;14.37;;;;;;;2.98;70.28;99227.38;2187685;80;21081;-80
2021/06/01 02:25:19;;;;;;;38.87;14.03;;;;;;;3.00;70.19;99229.62;2213406;80;21104;-81
2021/06/01 02:28:20;;;;;;;20.80;13.27;;;;;;;2.94;69.76;99220.70;2158613;81;21283;-80
2021/06/01 02:31:21;;;;;;;27.10;13.43;;;;;;;2.89;69.67;99221.77;2158189;81;21602;-79
2021/06/01 02:34:22;;;;;;;40.93;15.03;;;;;;;2.89;69.90;99221.77;2158799;81;21060;-81
2021/06/01 02:37:23;;;;;;;30.43;14.80;;;;;;;2.89;69.82;99223.06;2152228;81;21549;-81
2021/06/01 02:40:24;;;;;;;32.80;14.37;;;;;;;2.88;69.91;99227.74;2173876;81;21037;-80
2021/06/01 02:43:25;;;;;;;30.90;14.03;;;;;;;2.91;70.13;99217.98;2221869;80;21108;-80
2021/06/01 02:46:26;;;;;;;28.40;13.10;;;;;;;2.93;69.95;99220.23;2175037;81;21112;-81
2021/06/01 02:49:28;;;;;;;25.83;14.00;;;;;;;2.89;69.78;99220.48;2175037;81;21392;-81
2021/06/01 02:52:29;;;;;;;28.57;13.50;;;;;;;2.91;69.82;99220.16;2189189;80;21036;-80
2021/06/01 02:55:30;;;;;;;20.87;13.30;;;;;;;2.94;69.90;99223.28;2200927;80;21403;-78
2021/06/01 02:58:31;;;;;;;33.87;14.43;;;;;;;3.01;69.83;99218.89;2147594;81;20989;-80
2021/06/01 03:01:32;;;;;;;20.43;13.47;;;;;;;3.05;69.86;99219.11;2186473;80;20993;-80
2021/06/01 03:04:33;;;;;;;29.50;14.10;;;;;;;3.11;69.80;99221.98;2212984;80;21072;-81
2021/06/01 03:07:34;;;;;;;29.93;12.63;;;;;;;3.17;69.83;99215.81;2163018;81;21068;-81
2021/06/01 03:10:35;;;;;;;27.33;13.47;;;;;;;3.25;69.69;99220.04;2155116;81;21033;-81
2021/06/01 03:13:36;;;;;;;28.50;12.93;;;;;;;3.31;69.61;99225.48;2186333;80;21093;-81
2021/06/01 03:16:37;;;;;;;29.13;13.03;;;;;;;3.38;69.87;99221.48;2221928;80;20997;-80
2021/06/01 03:19:38;;;;;;;30.70;15.10;;;;;;;3.48;69.59;99221.13;2167221;81;21149;-79
2021/06/01 03:22:39;;;;;;;30.70;15.10;;;;;;;3.55;69.51;99215.44;2155472;81;21378;-80
2021/06/01 03:25:41;;;;;;;24.97;13.87;;;;;;;3.61;69.23;99215.70;2186428;80;21102;-81
2021/06/01 03:28:41;;;;;;;32.53;13.80;;;;;;;3.63;69.20;99210.20;2204650;80;21382;-80
2021/06/01 03:31:42;;;;;;;22.07;13.43;;;;;;;3.70;69.42;99213.95;2167356;81;21058;-80
2021/06/01 03:34:44;;;;;;;30.83;14.13;;;;;;;3.76;69.46;99206.06;2163302;81;21076;-81
2021/06/01 03:37:45;;;;;;;31.53;14.60;;;;;;;3.84;69.54;99205.99;2186611;81;21106;-80
2021/06/01 03:40:46;;;;;;;64.43;15.93;;;;;;;3.89;69.44;99200.14;2213042;80;20982;-80
2021/06/01 03:43:47;;;;;;;35.63;14.63;;;;;;;4.07;69.88;99200.94;2159022;81;21128;-80
2021/06/01 03:46:48;;;;;;;35.60;14.17;;;;;;;4.15;69.74;99199.56;2171249;81;21429;-80
2021/06/01 03:49:49;;;;;;;30.03;13.57;;;;;;;4.23;69.63;99202.48;2187353;80;21029;-80
2021/06/01 03:52:50;;;;;;;30.53;14.10;;;;;;;4.28;69.70;99197.97;2190011;80;21401;-80
2021/06/01 03:55:51;;;;;;;109.03;16.97;;;;;;;4.39;69.77;99198.05;2200848;80;21020;-80
2021/06/01 03:58:52;;;;;;;25.80;13.67;;;;;;;4.53;69.74;99200.31;2155263;81;21428;-80
2021/06/01 04:01:53;;;;;;;32.03;14.10;;;;;;;4.64;69.53;99202.52;2170964;81;20999;-79
2021/06/01 04:04:54;;;;;;;33.27;14.63;;;;;;;4.80;69.54;99198.44;2152816;81;21117;-80
2021/06/01 04:07:56;;;;;;;27.73;14.70;;;;;;;4.99;69.76;99197.47;2187166;80;21005;-80
2021/06/01 04:10:56;;;;;;;28.70;14.03;;;;;;;5.26;69.67;99201.98;2189510;80;21001;-80
2021/06/01 04:17:00;;;;;;;29.80;14.00;;;;;;;5.96;69.54;99191.24;2177555;80;21100;-81
2021/06/01 04:20:01;;;;;;;24.63;13.83;;;;;;;6.36;69.25;99196.55;2166653;81;21104;-80
2021/06/01 04:23:02;;;;;;;30.33;13.70;;;;;;;6.76;68.90;99194.85;2160333;81;20992;-81
2021/06/01 04:26:04;;;;;;;25.07;11.77;;;;;;;7.16;68.79;99192.25;2186725;80;21068;-80
2021/06/01 04:29:04;;;;;;;22.53;13.63;;;;;;;7.33;68.15;99193.22;2189870;79;21020;-80
2021/06/01 04:32:05;;;;;;;375.77;38.17;;;;;;;7.68;67.92;99195.55;2189880;80;21083;-80
2021/06/01 04:35:07;;;;;;;32.77;13.00;;;;;;;8.08;67.60;99195.40;2189518;80;21048;-81
2021/06/01 04:38:08;;;;;;;24.33;12.87;;;;;;;8.47;67.57;99194.72;2155875;81;21393;-79
2021/06/01 04:41:11;;;;;;;21.43;12.77;;;;;;;8.63;67.45;99192.97;2188194;80;21016;-79
2021/06/01 04:44:13;;;;;;;;;;;;;;;8.98;67.02;99203.39;2190749;80;21040;-80
2021/06/01 04:47:14;;;;;;;238.30;20.50;;;;;;;9.20;66.77;99188.30;2171464;81;20427;-79
2021/06/01 04:50:16;;;;;;;19.67;12.07;;;;;;;9.39;66.25;99198.70;2154924;81;21431;-80
2021/06/01 04:53:17;;;;;;;28.43;11.07;;;;;;;9.54;66.17;99202.98;2151912;81;21016;-80
2021/06/01 04:56:19;;;;;;;135.87;18.57;;;;;;;9.66;65.73;99200.17;2158560;81;21116;-79
2021/06/01 04:59:19;;;;;;;31.20;12.43;;;;;;;9.60;65.29;99206.56;2184925;81;21005;-80
2021/06/01 05:02:20;;;;;;;23.20;11.43;;;;;;;9.68;65.34;99198.05;2221103;80;21005;-78
2021/06/01 05:05:21;;;;;;;19.57;11.33;;;;;;;10.01;65.64;99200.89;2167881;81;21048;-80
2021/06/01 05:08:22;;;;;;;21.93;11.87;;;;;;;10.25;65.36;99193.56;2160121;81;21120;-79
2021/06/01 05:11:23;;;;;;;25.17;10.87;;;;;;;10.50;65.10;99190.58;2183615;79;21016;-78
2021/06/01 05:14:25;;;;;;;21.43;11.00;;;;;;;10.76;65.58;99194.94;2217904;80;21101;-81
2021/06/01 05:17:26;;;;;;;29.83;12.23;;;;;;;11.08;65.16;99193.27;2182652;81;21133;-81
2021/06/01 05:20:27;;;;;;;42.27;13.67;;;;;;;11.42;64.83;99201.20;2148891;81;21001;-79
2021/06/01 05:23:28;;;;;;;58.00;13.83;;;;;;;11.88;63.97;99195.30;2151848;81;21112;-80
2021/06/01 05:26:29;;;;;;;49.03;13.60;;;;;;;12.25;62.57;99194.01;2157408;81;21076;-79
2021/06/01 05:29:30;;;;;;;49.70;15.00;;;;;;;12.53;61.26;99196.05;2184447;80;20989;-80
2021/06/01 05:35:53;;;;;;;59.18;15.60;;;;;;;12.99;60.30;99197.75;2154552;81;21123;-81
2021/06/01 05:38:55;;;;;;;52.27;15.18;;;;;;;13.48;59.53;99197.71;2165146;81;21088;-82
2021/06/01 05:41:55;;;;;;;51.77;14.85;;;;;;;13.97;57.91;99190.98;2188838;80;21511;-79
2021/06/01 05:44:57;;;;;;;46.85;14.70;;;;;;;14.41;57.17;99195.48;2212800;80;21496;-82
2021/06/01 05:47:57;;;;;;;32.98;13.10;;;;;;;14.88;56.43;99200.85;2178580;81;21020;-81
2021/06/01 05:50:58;;;;;;;29.67;13.00;;;;;;;15.28;54.92;99192.50;2155072;81;21440;-79
2021/06/01 05:53:59;;;;;;;46.92;14.53;;;;;;;15.62;54.54;99192.48;2188841;80;21423;-79
2021/06/01 05:57:00;;;;;;;39.75;12.50;;;;;;;16.03;54.13;99183.55;2216754;80;21511;-79
2021/06/01 06:00:01;;;;;;;24.70;12.13;;;;;;;16.48;52.78;99195.19;2161873;81;21033;-80
2021/06/01 06:03:04;;;;;;;31.00;10.90;;;;;;;16.77;51.78;99191.51;2161296;81;21127;-81
2021/06/01 06:06:11;;;;;;;94.77;15.38;;;;;;;17.10;50.49;99189.91;2188885;80;21381;-80
2021/06/01 06:09:07;;;;;;;19.30;9.43;;;;;;;17.47;48.89;99189.59;2199438;80;21476;-80
2021/06/01 06:12:08;;;;;;;13.93;8.25;;;;;;;17.94;47.48;99190.84;2183438;81;21064;-83
2021/06/01 06:15:10;;;;;;;10.85;7.30;;;;;;;18.33;45.79;99192.13;2164720;81;21032;-83
2021/06/01 06:18:11;;;;;;;9.90;7.78;;;;;;;18.57;43.58;99195.73;2165369;81;21516;-80
2021/06/01 06:21:13;;;;;;;13.10;7.72;;;;;;;18.55;42.96;99194.88;2157270;81;21739;-81
2021/06/01 06:24:14;;;;;;;12.75;7.95;;;;;;;18.67;42.58;99194.73;2172633;81;21040;-81
2021/06/01 06:27:15;;;;;;;8.65;5.80;;;;;;;18.76;42.56;99193.72;2172359;81;21105;-82
2021/06/01 06:30:15;;;;;;;12.53;6.42;;;;;;;19.00;41.72;99193.33;2187577;81;21436;-83
2021/06/01 06:33:16;;;;;;;10.55;5.08;;;;;;;19.14;41.08;99194.45;2193476;81;21327;-81
2021/06/01 06:36:17;;;;;;;12.33;4.80;;;;;;;19.07;39.88;99188.38;2176215;81;21026;-83
2021/06/01 06:39:20;;;;;;;6.70;4.65;;;;;;;19.10;40.81;99190.11;2178563;81;21073;-81
2021/06/01 06:42:20;;;;;;;9.80;4.90;;;;;;;19.21;40.51;99192.12;2161365;81;21048;-81
2021/06/01 06:45:23;;;;;;;7.28;5.00;;;;;;;19.11;39.44;99192.30;2166776;81;21159;-81
2021/06/01 06:48:24;;;;;;;9.78;5.45;;;;;;;19.00;40.33;99192.00;2182408;81;21101;-83
2021/06/01 06:51:26;;;;;;;7.97;5.33;;;;;;;19.07;40.54;99192.36;2176395;81;21076;-81
2021/06/01 06:54:27;;;;;;;425.77;35.70;;;;;;;18.94;40.54;99187.26;2174192;81;21136;-82
2021/06/01 06:57:28;;;;;;;11.25;5.10;;;;;;;18.77;40.63;99192.82;2168554;81;21077;-80
2021/06/01 07:00:30;;;;;;;11.00;5.00;;;;;;;18.76;40.76;99191.08;2176106;81;21031;-81
2021/06/01 07:03:31;;;;;;;6.22;5.08;;;;;;;18.77;40.46;99196.78;2154801;81;21056;-82
2021/06/01 07:06:31;;;;;;;23.10;5.50;;;;;;;18.75;40.97;99186.23;2161477;81;20992;-81
2021/06/01 07:09:37;;;;;;;11.60;4.65;;;;;;;18.67;41.15;99185.93;2156610;81;21088;-82
2021/06/01 07:12:36;;;;;;;14.18;4.80;;;;;;;18.71;42.17;99188.95;2174165;81;21068;-81
2021/06/01 07:15:37;;;;;;;11.60;4.28;;;;;;;18.93;40.74;99190.36;2193933;81;21508;-79
2021/06/01 07:18:40;;;;;;;16.27;5.00;;;;;;;18.80;39.94;99192.77;2194111;81;21025;-81
2021/06/01 07:21:40;;;;;;;8.13;5.15;;;;;;;18.61;40.23;99196.56;2165507;81;21116;-81
2021/06/01 07:24:41;;;;;;;11.40;4.50;;;;;;;18.49;40.73;99194.98;2149908;81;21016;-79
2021/06/01 07:27:42;;;;;;;6.17;4.47;;;;;;;18.51;40.22;99198.92;2164054;81;21080;-82
2021/06/01 07:30:43;;;;;;;9.15;4.70;;;;;;;18.49;40.36;99196.74;2161147;81;21072;-81
2021/06/01 07:33:45;;;;;;;10.20;4.65;;;;;;;18.54;40.04;99193.59;2162710;81;21099;-81
2021/06/01 07:36:45;;;;;;;10.50;4.33;;;;;;;18.63;40.04;99196.13;2168592;81;21037;-80
2021/06/01 07:39:47;;;;;;;7.65;5.00;;;;;;;18.88;40.11;99192.20;2183463;82;21028;-81
2021/06/01 07:42:47;;;;;;;9.20;3.90;;;;;;;19.27;39.36;99194.66;2164917;81;21052;-81
2021/06/01 07:45:48;;;;;;;7.53;3.65;;;;;;;19.41;38.18;99194.41;2159720;81;21029;-82
2021/06/01 07:48:49;;;;;;;8.15;3.40;;;;;;;19.33;38.02;99193.22;2152630;81;21428;-82
2021/06/01 07:51:51;;;;;;;5.83;2.67;;;;;;;19.33;37.32;99196.32;2174442;81;21001;-82
2021/06/01 07:54:52;;;;;;;3.22;2.40;;;;;;;19.18;34.53;99196.59;2182562;81;21520;-82
2021/06/01 07:57:54;;;;;;;6.58;3.00;;;;;;;19.17;33.53;99194.84;2175394;81;21505;-82
2021/06/01 08:00:55;;;;;;;5.03;2.60;;;;;;;19.17;34.46;99192.20;2156729;81;21065;-79
2021/06/01 08:03:56;;;;;;;8.13;2.70;;;;;;;19.42;34.64;99184.23;2188755;80;20981;-81
2021/06/01 08:07:02;;;;;;;4.47;2.37;;;;;;;19.80;33.62;99184.86;2159936;81;21169;-81
2021/06/01 08:10:00;;;;;;;4.47;2.17;;;;;;;20.12;33.48;99184.23;2177490;81;21759;-84
2021/06/01 08:13:01;;;;;;;4.55;2.65;;;;;;;20.60;32.24;99177.45;2180543;81;21029;-80
2021/06/01 08:16:03;;;;;;;6.50;2.80;;;;;;;20.91;31.11;99174.51;2182875;81;21142;-81
2021/06/01 08:22:34;;;;;;;7.73;2.77;;;;;;;21.15;32.06;99168.16;2138760;81;21001;-81
2021/06/01 08:25:15;;;;;;;2.35;1.95;;;;;;;21.16;31.39;99161.48;2157344;81;21089;-82
2021/06/01 08:28:16;;;;;;;6.10;2.02;;;;;;;21.23;31.02;99159.58;2157396;81;21576;-80
2021/06/01 08:31:18;;;;;;;4.47;2.10;;;;;;;21.44;30.75;99159.46;2173735;81;21128;-80
2021/06/01 08:34:18;;;;;;;3.70;2.50;;;;;;;21.39;30.85;99158.72;2165749;81;21456;-80
2021/06/01 08:37:19;;;;;;;6.50;2.40;;;;;;;21.43;30.37;99157.27;2165749;81;21099;-81
2021/06/01 08:40:21;;;;;;;5.75;2.25;;;;;;;21.26;29.92;99156.39;2159331;81;21460;-82
2021/06/01 08:43:23;;;;;;;5.33;2.40;;;;;;;20.89;30.07;99158.20;2159660;81;21025;-80
2021/06/01 08:46:26;;;;;;;3.63;2.50;;;;;;;20.81;30.80;99153.55;2180348;81;21440;-80
2021/06/01 08:49:27;;;;;;;3.05;2.25;;;;;;;20.93;30.47;99158.55;2163052;81;21088;-81
2021/06/01 08:52:28;;;;;;;3.58;2.17;;;;;;;20.96;30.63;99157.14;2166989;81;21005;-81
2021/06/01 08:55:29;;;;;;;4.37;2.30;;;;;;;21.17;29.60;99149.09;2179142;81;21071;-81
2021/06/01 08:58:32;;;;;;;3.72;2.08;;;;;;;21.01;30.38;99152.59;2169044;80;22243;-83
2021/06/01 09:01:33;;;;;;;5.60;2.25;;;;;;;21.14;30.07;99142.53;2180727;81;21099;-82
2021/06/01 09:04:34;;;;;;;2.33;1.87;;;;;;;21.18;29.11;99146.84;2181616;81;21048;-82
2021/06/01 09:07:50;;;;;;;2.40;1.80;;;;;;;21.12;29.75;99142.57;2159198;81;20988;-81
2021/06/01 09:11:04;;;;;;;3.75;1.90;;;;;;;21.28;29.61;99142.61;2165937;81;21095;-80
2021/06/01 09:15:04;;;;;;;13.10;2.98;;;;;;;21.65;28.90;99139.41;2153175;81;21092;-80
2021/06/01 09:23:22;;;;;;;2.25;1.82;;;;;;;23.42;26.93;99140.09;2140900;82;21073;-81
2021/06/01 09:26:23;;;;;;;3.42;2.00;;;;;;;24.01;25.73;99130.39;2150186;81;21025;-81
2021/06/01 09:29:26;;;;;;;29.37;3.53;;;;;;;24.50;25.24;99128.07;2139288;81;21344;-81
2021/06/01 09:32:30;;;;;;;4.33;2.17;;;;;;;24.91;24.29;99122.83;2170318;81;21067;-80
2021/06/01 09:35:29;;;;;;;5.07;2.20;;;;;;;24.74;24.22;99120.86;2162430;81;21139;-80
2021/06/01 09:38:30;;;;;;;3.90;2.00;;;;;;;24.99;24.07;99116.73;2151501;81;21120;-83
2021/06/01 09:41:31;;;;;;;4.87;2.05;;;;;;;24.97;25.07;99125.24;2144775;81;21008;-80
2021/06/01 09:44:32;;;;;;;4.00;2.62;;;;;;;24.58;24.50;99126.42;2175401;82;21077;-81
2021/06/01 09:47:33;;;;;;;5.03;2.25;;;;;;;24.00;23.70;99124.19;2175790;81;21396;-79
2021/06/01 09:50:37;;;;;;;4.78;2.25;;;;;;;23.68;25.16;99118.73;2152578;81;21091;-80
2021/06/01 09:53:37;;;;;;;8.63;2.70;;;;;;;23.28;24.24;99121.90;2187301;80;21163;-80
2021/06/01 09:56:38;;;;;;;8.88;3.17;;;;;;;22.54;26.75;99131.89;2189763;80;21031;-81
2021/06/01 09:59:40;;;;;;;7.60;2.58;;;;;;;21.98;28.27;99126.50;2180828;81;21055;-79
2021/06/01 10:02:42;;;;;;;4.12;2.65;;;;;;;21.55;28.92;99127.71;2178805;81;21040;-81
2021/06/01 10:05:43;;;;;;;4.97;2.83;;;;;;;21.15;29.17;99117.73;2168474;81;21119;-81
2021/06/01 10:08:44;;;;;;;22.48;3.45;;;;;;;21.06;29.59;99123.28;2185191;81;21108;-84
2021/06/01 10:11:44;;;;;;;4.78;2.33;;;;;;;20.89;29.96;99123.26;2178175;81;21040;-81
2021/06/01 10:14:45;;;;;;;5.62;2.80;;;;;;;20.59;29.58;99122.66;2186117;81;21005;-81
2021/06/01 10:17:48;;;;;;;9.10;2.70;;;;;;;20.52;29.82;99121.06;2181693;81;21004;-80
2021/06/01 10:20:49;;;;;;;4.80;2.37;;;;;;;20.49;30.09;99112.73;2169165;81;21012;-81
2021/06/01 10:23:52;;;;;;;5.25;3.05;;;;;;;20.70;29.99;99117.97;2183126;81;21025;-79
2021/06/01 10:26:57;;;;;;;5.08;2.10;;;;;;;20.72;30.15;99121.45;2169430;81;21445;-81
2021/06/01 10:29:55;;;;;;;2.40;2.15;;;;;;;20.86;29.88;99114.50;2184277;81;21378;-80
2021/06/01 10:32:56;;;;;;;4.70;2.35;;;;;;;21.06;29.83;99113.98;2184985;80;21107;-79
2021/06/01 10:36:18;;;;;;;11.78;2.98;;;;;;;21.08;29.58;99114.36;2162974;81;21104;-81
2021/06/01 10:42:35;;;;;;;57.62;6.17;;;;;;;21.14;30.30;99118.64;2175341;81;21072;-80
2021/06/01 10:48:44;;;;;;;5.70;2.37;;;;;;;21.08;30.34;99113.49;2182940;81;21104;-81
2021/06/01 10:51:42;;;;;;;5.40;2.50;;;;;;;21.07;30.17;99113.95;2176620;81;21101;-80
2021/06/01 10:54:50;;;;;;;3.33;2.47;;;;;;;21.15;30.63;99105.33;2185521;81;21025;-79
2021/06/01 10:57:52;;;;;;;17.32;3.17;;;;;;;21.26;29.53;99109.05;2189153;81;21096;-80
2021/06/01 11:04:13;;;;;;;3.95;2.50;;;;;;;21.71;29.46;99104.73;2177911;81;21458;-81
2021/06/01 11:07:14;;;;;;;3.92;2.33;;;;;;;21.95;29.21;99098.69;2194139;81;21120;-81
2021/06/01 11:10:15;;;;;;;5.75;2.45;;;;;;;22.13;29.08;99100.81;2169285;81;21460;-81
2021/06/01 11:13:16;;;;;;;3.27;2.30;;;;;;;22.37;28.38;99098.31;2185538;81;21031;-81
2021/06/01 11:16:17;;;;;;;5.30;2.85;;;;;;;22.38;28.45;99098.72;2168971;81;21063;-82
2021/06/01 11:19:20;;;;;;;2.83;2.22;;;;;;;22.68;27.84;99106.20;2169015;81;21115;-80
2021/06/01 11:22:25;;;;;;;7.87;2.58;;;;;;;22.88;27.26;99093.99;2177213;81;21110;-79
2021/06/01 11:35:06;;;;;;;3.77;2.27;;;;;;;23.20;26.41;99093.34;2183693;81;21059;-79
2021/06/01 11:44:27;;;;;;;3.08;2.45;;;;;;;23.53;25.49;99087.75;2141118;81;21027;-82
2021/06/01 11:47:41;;;;;;;3.10;2.25;;;;;;;23.73;25.77;99086.12;2168727;81;21391;-81
2021/06/01 11:53:51;;;;;;;4.47;2.42;;;;;;;23.73;25.38;99085.25;2184241;81;21072;-81
2021/06/01 12:03:19;;;;;;;3.35;2.20;;;;;;;24.07;25.02;99081.69;2187473;81;21013;-80
2021/06/01 12:19:23;;;;;;;3.83;2.10;;;;;;;25.59;23.20;99063.77;2187964;81;21108;-80
2021/06/01 12:22:24;;;;;;;23.73;4.10;;;;;;;25.67;23.40;99060.31;2195091;81;21100;-79
2021/06/01 12:25:25;;;;;;;5.37;2.30;;;;;;;25.82;24.25;99061.41;2187964;81;21116;-79
2021/06/01 12:31:45;;;;;;;6.58;2.00;;;;;;;25.81;23.11;99054.32;2186186;81;21004;-82
2021/06/01 12:41:56;;;;;;;10.30;2.27;;;;;;;25.18;22.81;99056.28;2169332;81;21048;-81
2021/06/01 12:44:46;;;;;;;3.87;2.08;;;;;;;24.90;23.80;99055.67;2159854;81;20994;-80
2021/06/01 13:21:05;;;;;;;7.10;2.30;;;;;;;23.36;25.10;99054.58;2182895;81;21014;-81
2021/06/01 13:30:49;;;;;;;3.60;2.02;;;;;;;22.98;25.85;99051.95;2167244;81;21179;-81
2021/06/01 13:40:00;;;;;;;4.37;2.40;;;;;;;22.39;26.37;99060.11;2173825;80;21084;-82
2021/06/01 13:46:24;;;;;;;3.37;2.00;;;;;;;22.33;26.97;99064.75;2177754;81;21415;-81
2021/06/01 13:49:32;;;;;;;4.00;2.15;;;;;;;22.27;27.02;99064.48;2187398;81;21136;-80
2021/06/01 13:52:49;;;;;;;5.25;2.40;;;;;;;22.10;27.24;99070.34;2155019;81;21336;-83
2021/06/01 13:55:39;;;;;;;4.67;2.55;;;;;;;22.08;27.17;99063.33;2165101;81;21105;-82
2021/06/01 14:21:56;;;;;;;10.55;2.67;;;;;;;21.93;28.12;99054.88;2154826;82;21083;-81
2021/06/01 14:28:37;;;;;;;5.25;2.10;;;;;;;21.84;28.68;99053.84;2167415;81;21159;-80
2021/06/01 14:31:21;;;;;;;6.62;2.60;;;;;;;21.80;28.60;99053.52;2154360;81;21111;-81
2021/06/01 15:10:53;;;;;;;6.58;2.27;;;;;;;21.40;30.22;99053.78;2181449;81;21057;-81
2021/06/01 15:50:19;;;;;;;5.37;3.90;;;;;;;20.55;30.80;99050.72;2154285;81;21104;-79
2021/06/01 16:32:37;;;;;;;6.05;3.20;;;;;;;21.84;30.28;99039.22;2181964;81;21084;-80
2021/06/01 17:04:36;;;;;;;5.87;3.00;;;;;;;21.74;30.42;99046.19;2167685;81;21288;-83
2021/06/01 17:07:39;;;;;;;18.37;3.00;;;;;;;21.76;30.47;99047.87;2178229;81;21033;-81
2021/06/01 17:13:50;;;;;;;6.08;2.90;;;;;;;21.56;30.44;99051.09;2154247;81;21008;-83
2021/06/01 17:16:56;;;;;;;5.47;2.60;;;;;;;21.48;31.36;99047.80;2155175;81;21036;-82
2021/06/01 17:23:18;;;;;;;58.45;6.65;;;;;;;21.11;32.49;99048.39;2135693;81;20993;-82
2021/06/01 17:36:10;;;;;;;4.37;2.52;;;;;;;19.78;38.50;99059.53;2220079;80;21057;-82
2021/06/01 17:39:11;;;;;;;4.80;2.83;;;;;;;19.42;38.80;99061.15;2149196;81;21520;-82
2021/06/01 17:42:12;;;;;;;3.50;2.70;;;;;;;19.12;39.29;99065.72;2173412;81;20993;-81
2021/06/01 17:45:13;;;;;;;3.25;2.92;;;;;;;18.83;39.72;99061.81;2174264;81;21009;-83
2021/06/01 17:48:30;;;;;;;5.12;2.55;;;;;;;18.56;39.60;99067.55;2153884;81;21092;-81
2021/06/01 17:51:17;;;;;;;5.53;2.62;;;;;;;18.29;40.07;99071.06;2173793;81;21080;-80
2021/06/01 17:54:17;;;;;;;9.93;2.98;;;;;;;18.05;40.18;99067.44;2166747;81;21060;-82
2021/06/01 17:57:18;;;;;;;3.05;2.55;;;;;;;18.14;40.57;99075.22;2175932;81;21009;-79
2021/06/01 18:00:21;;;;;;;41.30;5.12;;;;;;;18.14;40.67;99075.22;2165950;81;21069;-82
2021/06/01 18:03:23;;;;;;;29.40;18.70;;;;;;;17.93;41.20;99076.86;2189012;80;21115;-81
2021/06/01 18:06:24;;;;;;;7.05;5.97;;;;;;;17.57;41.73;99081.70;2198922;80;21396;-82
2021/06/01 18:34:48;;;;;;;3.72;3.00;;;;;;;15.97;45.91;99098.02;2182515;81;21151;-83
2021/06/01 19:21:23;;;;;;;7.12;3.67;;;;;;;14.59;52.79;99143.00;2166356;81;21033;-83
2021/06/01 19:21:55;;;;;;;5.28;3.80;;;;;;;14.44;54.53;99149.55;2185195;80;21065;-81
2021/06/01 19:24:40;;;;;;;7.15;3.55;;;;;;;14.36;54.37;99153.89;2176446;81;21452;-82
2021/06/01 19:50:41;;;;;;;5.12;4.05;;;;;;;14.23;55.10;99173.12;2177121;81;21032;-82
2021/06/01 19:53:42;;;;;;;5.90;4.47;;;;;;;14.25;55.48;99176.63;2186478;81;21052;-82
2021/06/01 19:56:43;;;;;;;26.25;22.00;;;;;;;14.25;55.11;99178.81;2181390;81;21393;-81
2021/06/01 19:59:44;;;;;;;8.08;5.53;;;;;;;14.24;55.65;99180.13;2194570;81;21044;-82
2021/06/01 20:02:45;;;;;;;5.65;4.20;;;;;;;14.22;55.51;99177.93;2181946;81;21419;-80
2021/06/01 20:05:46;;;;;;;12.50;4.45;;;;;;;14.21;55.48;99180.12;2188601;81;21041;-82
2021/06/01 20:08:47;;;;;;;5.53;3.90;;;;;;;14.19;55.79;99180.55;2174759;81;21364;-81
2021/06/01 20:11:48;;;;;;;9.63;4.30;;;;;;;14.19;56.16;99182.73;2173781;81;21095;-79
2021/06/01 20:14:49;;;;;;;6.53;4.70;;;;;;;14.15;56.39;99189.29;2186474;81;21037;-82
2021/06/01 20:17:50;;;;;;;6.95;4.47;;;;;;;14.09;55.86;99188.83;2185312;81;21131;-81
2021/06/01 20:20:51;;;;;;;5.70;4.55;;;;;;;14.11;56.20;99190.15;2174523;81;21204;-82
2021/06/01 20:23:52;;;;;;;4.45;4.05;;;;;;;14.07;56.53;99194.52;2174771;81;21096;-81
2021/06/01 20:26:53;;;;;;;7.40;4.90;;;;;;;14.06;56.72;99186.63;2186427;81;21056;-80
2021/06/01 20:30:00;;;;;;;7.05;5.15;;;;;;;14.03;56.61;99189.69;2194850;81;21060;-80
2021/06/01 20:33:07;;;;;;;9.23;4.90;;;;;;;14.03;56.47;99188.38;2189161;81;21021;-82
2021/06/01 20:36:08;;;;;;;8.18;5.10;;;;;;;14.03;56.61;99193.63;2181409;81;21434;-80
2021/06/01 20:39:10;;;;;;;7.72;5.30;;;;;;;14.05;56.52;99194.06;2187778;81;21029;-81
2021/06/01 20:42:11;;;;;;;6.97;5.35;;;;;;;14.04;56.48;99195.81;2181060;81;21038;-81
2021/06/01 20:45:12;;;;;;;7.15;5.55;;;;;;;14.01;56.52;99190.12;2177326;81;21077;-81
2021/06/01 20:48:16;;;;;;;9.60;5.50;;;;;;;13.99;56.54;99193.61;2184278;81;21080;-80
2021/06/01 20:51:17;;;;;;;9.33;5.42;;;;;;;13.97;56.46;99204.10;2176602;81;21108;-80
2021/06/01 20:54:18;;;;;;;9.90;5.87;;;;;;;13.94;56.52;99199.28;2164299;81;21004;-81